Time;durP1;ratioP1;P1;durP2;ratioP2;P2;SDS_P1;SDS_P2;PMS_P1;PMS_P2;Temp;Humidity;BMP_temperature;BMP_pressure;BME280_temperature;BME280_humidity;BME280_pressure;Samples;Min_cycle;Max_cycle;Signal;HPM_P1;HPM_P2
2021/01/22 00:01:37;;;;;;;5.80;3.47;;;2.20;99.90;;;;;;4971369;28;20167;-76
2021/01/22 00:04:03;;;;;;;4.82;2.88;;;2.20;99.90;;;;;;4971404;28;20555;-75
2021/01/22 00:06:28;;;;;;;2.63;1.33;;;2.50;99.90;;;;;;4976269;28;20099;-74
2021/01/22 00:08:54;;;;;;;1.75;1.25;;;3.10;99.90;;;;;;4974592;28;20094;-74
2021/01/22 00:11:20;;;;;;;2.05;1.40;;;3.50;99.90;;;;;;4975780;28;20075;-75
2021/01/22 00:13:45;;;;;;;1.67;1.00;;;3.60;99.90;;;;;;4975790;28;20559;-73
2021/01/22 00:16:11;;;;;;;7.15;3.05;;;4.30;99.90;;;;;;4983334;28;20094;-76
2021/01/22 00:18:37;;;;;;;12.50;5.00;;;3.90;99.90;;;;;;4985538;28;20557;-73
2021/01/22 00:21:05;;;;;;;6.72;3.50;;;3.50;99.90;;;;;;4988729;28;20103;-76
2021/01/22 00:23:31;;;;;;;9.77;3.45;;;3.40;99.90;;;;;;4979809;28;20106;-76
2021/01/22 00:25:56;;;;;;;10.25;4.68;;;3.40;99.90;;;;;;5002401;28;20086;-77
2021/01/22 00:28:22;;;;;;;8.20;4.25;;;3.50;99.90;;;;;;4996999;28;20079;-75
2021/01/22 00:30:48;;;;;;;3.97;2.00;;;3.20;99.90;;;;;;4971143;28;20119;-75
2021/01/22 00:33:14;;;;;;;3.15;1.77;;;3.30;99.90;;;;;;4986532;28;20130;-76
2021/01/22 00:35:39;;;;;;;3.08;1.40;;;3.40;99.90;;;;;;4975928;28;20170;-76
2021/01/22 00:38:05;;;;;;;17.30;9.13;;;3.60;99.90;;;;;;4975984;28;20111;-76
2021/01/22 00:40:31;;;;;;;20.55;10.38;;;3.20;99.90;;;;;;4971559;28;20106;-76
2021/01/22 00:42:57;;;;;;;24.10;13.18;;;2.80;99.90;;;;;;4971370;28;20115;-76
2021/01/22 00:45:23;;;;;;;20.92;12.30;;;2.70;99.90;;;;;;4969599;28;20077;-75
2021/01/22 00:47:48;;;;;;;20.95;11.57;;;2.60;99.90;;;;;;4971893;28;20075;-73
2021/01/22 00:50:14;;;;;;;14.50;8.32;;;2.50;99.90;;;;;;4970562;28;20133;-75
2021/01/22 00:52:39;;;;;;;17.40;9.68;;;3.00;99.90;;;;;;4971521;28;20198;-75
2021/01/22 00:55:06;;;;;;;17.17;9.85;;;2.90;99.90;;;;;;4971098;28;20087;-76
2021/01/22 00:57:32;;;;;;;18.77;11.30;;;2.90;99.90;;;;;;4972393;28;20087;-76
2021/01/22 00:59:58;;;;;;;14.18;8.85;;;2.70;99.90;;;;;;4986633;28;20121;-77
2021/01/22 01:02:23;;;;;;;10.40;5.53;;;2.70;99.90;;;;;;4972273;28;20158;-76
2021/01/22 01:04:49;;;;;;;5.20;1.90;;;2.90;99.90;;;;;;4970975;28;20079;-74
2021/01/22 01:07:14;;;;;;;5.88;1.98;;;3.60;99.90;;;;;;4983730;28;20084;-73
2021/01/22 01:09:40;;;;;;;2.80;1.60;;;4.00;99.90;;;;;;4975376;28;20071;-73
2021/01/22 01:12:06;;;;;;;3.25;2.05;;;4.40;99.90;;;;;;4982858;28;20562;-74
2021/01/22 01:14:31;;;;;;;3.40;1.50;;;4.40;99.90;;;;;;4974870;28;20103;-73
2021/01/22 01:16:57;;;;;;;2.83;1.42;;;4.40;99.90;;;;;;4985944;28;20602;-75
2021/01/22 01:19:23;;;;;;;3.53;1.65;;;4.40;99.90;;;;;;4972000;28;20689;-73
2021/01/22 01:21:48;;;;;;;3.38;2.55;;;4.40;99.90;;;;;;4973538;28;20451;-73
2021/01/22 01:24:14;;;;;;;3.10;2.10;;;4.30;99.90;;;;;;4977265;28;20098;-75
2021/01/22 01:26:39;;;;;;;3.33;1.80;;;4.20;99.90;;;;;;4981434;28;20086;-76
2021/01/22 01:29:05;;;;;;;6.68;2.20;;;4.10;99.90;;;;;;4980721;28;20455;-76
2021/01/22 01:31:30;;;;;;;5.07;2.90;;;4.20;99.90;;;;;;4969576;28;20447;-76
2021/01/22 01:33:56;;;;;;;4.00;2.35;;;4.20;99.90;;;;;;4973356;28;20102;-76
2021/01/22 01:36:22;;;;;;;4.15;2.40;;;4.10;99.90;;;;;;4969811;28;20154;-76
2021/01/22 01:38:47;;;;;;;3.78;1.98;;;4.00;99.90;;;;;;4975169;28;20153;-75
2021/01/22 01:41:13;;;;;;;2.63;1.75;;;3.90;99.90;;;;;;4990195;28;20628;-76
2021/01/22 01:43:38;;;;;;;4.45;2.40;;;4.00;99.90;;;;;;4975205;28;20087;-75
2021/01/22 01:46:04;;;;;;;3.28;2.67;;;4.10;99.90;;;;;;4968234;28;20082;-77
2021/01/22 01:48:30;;;;;;;3.10;1.90;;;4.10;99.90;;;;;;4971035;28;20076;-73
2021/01/22 01:50:55;;;;;;;2.28;1.60;;;3.90;99.90;;;;;;4983992;28;20083;-76
2021/01/22 01:53:22;;;;;;;3.03;1.90;;;3.80;99.90;;;;;;4971894;28;20109;-76
2021/01/22 01:55:48;;;;;;;3.95;1.90;;;3.70;99.90;;;;;;4970654;28;20083;-77
2021/01/22 01:58:15;;;;;;;2.97;1.90;;;3.70;99.90;;;;;;4971231;28;20079;-75
2021/01/22 02:00:41;;;;;;;3.45;1.83;;;3.60;99.90;;;;;;4969282;28;20774;-75
2021/01/22 02:03:07;;;;;;;2.15;1.58;;;3.60;99.90;;;;;;4971725;28;20133;-76
2021/01/22 02:05:32;;;;;;;3.92;1.75;;;3.50;99.90;;;;;;4985216;28;20103;-76
2021/01/22 02:07:58;;;;;;;2.13;1.33;;;3.60;99.90;;;;;;4970245;28;21219;-75
2021/01/22 02:10:24;;;;;;;3.85;1.52;;;3.50;99.90;;;;;;4985644;28;20134;-75
2021/01/22 02:12:50;;;;;;;2.75;1.17;;;3.30;99.90;;;;;;4969892;28;20464;-76
2021/01/22 02:15:17;;;;;;;3.15;1.58;;;3.50;99.90;;;;;;4970066;28;20087;-75
2021/01/22 02:17:44;;;;;;;2.42;1.63;;;3.20;99.90;;;;;;4970139;28;20667;-76
2021/01/22 02:20:30;;;;;;;2.72;1.70;;;3.30;99.90;;;;;;4969730;28;20091;-76
2021/01/22 02:22:56;;;;;;;2.78;1.90;;;3.20;99.90;;;;;;4949770;28;20107;-76
2021/01/22 02:25:41;;;;;;;2.30;1.30;;;3.40;99.90;;;;;;4973120;28;20125;-76
2021/01/22 02:28:12;;;;;;;2.30;1.30;;;3.40;99.90;;;;;;4969119;28;20075;-76
2021/01/22 02:30:45;;;;;;;2.58;1.40;;;3.50;99.90;;;;;;4969918;28;20540;-75
2021/01/22 02:33:12;;;;;;;2.83;1.45;;;3.30;99.90;;;;;;4970706;28;20580;-75
2021/01/22 02:35:39;;;;;;;2.22;1.60;;;3.20;99.90;;;;;;4969701;28;20625;-75
2021/01/22 02:38:06;;;;;;;2.17;1.40;;;3.00;99.90;;;;;;4969556;28;20079;-75
2021/01/22 02:40:33;;;;;;;2.70;1.48;;;3.10;99.90;;;;;;4970188;28;20190;-76
2021/01/22 02:43:01;;;;;;;2.20;1.35;;;3.20;99.90;;;;;;4968878;28;20095;-76
2021/01/22 02:45:27;;;;;;;1.90;1.30;;;3.20;99.90;;;;;;4984321;28;20141;-75
2021/01/22 02:47:52;;;;;;;1.92;1.10;;;3.20;99.90;;;;;;4968621;28;20725;-77
2021/01/22 02:50:30;;;;;;;1.92;1.60;;;3.20;99.90;;;;;;4969757;28;20091;-76
2021/01/22 02:53:01;;;;;;;2.03;1.02;;;3.30;99.90;;;;;;4980902;28;20102;-76
2021/01/22 02:55:28;;;;;;;2.85;1.23;;;3.10;99.90;;;;;;4972858;28;20088;-76
2021/01/22 02:57:59;;;;;;;3.65;1.33;;;3.10;99.90;;;;;;4974392;28;20115;-76
2021/01/22 03:00:35;;;;;;;2.10;1.45;;;3.10;99.90;;;;;;4973323;28;20095;-75
2021/01/22 03:03:35;;;;;;;3.72;1.40;;;3.10;99.90;;;;;;4973643;28;20083;-75
2021/01/22 03:06:02;;;;;;;2.58;1.35;;;3.20;99.90;;;;;;4981089;28;20079;-76
2021/01/22 03:08:29;;;;;;;3.45;1.50;;;3.30;99.90;;;;;;4974831;28;20081;-75
2021/01/22 03:10:56;;;;;;;1.33;1.17;;;3.10;99.90;;;;;;4973969;28;20083;-76
2021/01/22 03:13:25;;;;;;;1.90;0.88;;;2.80;99.90;;;;;;4972431;28;20087;-77
2021/01/22 03:15:51;;;;;;;2.53;1.20;;;2.70;99.90;;;;;;4987481;28;20674;-76
2021/01/22 03:18:18;;;;;;;3.00;1.25;;;2.70;99.90;;;;;;4988252;28;20529;-76
2021/01/22 03:20:46;;;;;;;1.90;1.35;;;2.90;99.90;;;;;;4972683;28;20121;-76
2021/01/22 03:23:13;;;;;;;2.28;1.80;;;2.90;99.90;;;;;;4987990;28;20154;-75
2021/01/22 03:25:39;;;;;;;2.97;1.83;;;2.90;99.90;;;;;;4974099;28;20071;-76
2021/01/22 03:28:05;;;;;;;2.17;1.23;;;2.90;99.90;;;;;;4977202;28;20127;-76
2021/01/22 03:30:31;;;;;;;2.78;1.45;;;2.90;99.90;;;;;;4972531;28;20548;-76
2021/01/22 03:32:57;;;;;;;2.40;1.27;;;2.90;99.90;;;;;;4974189;28;20106;-76
2021/01/22 03:35:23;;;;;;;1.92;1.42;;;3.00;99.90;;;;;;4973237;28;20083;-76
2021/01/22 03:37:48;;;;;;;2.42;1.55;;;3.20;99.90;;;;;;4973021;28;20083;-76
2021/01/22 03:40:15;;;;;;;3.25;1.40;;;3.10;99.90;;;;;;4972797;28;20090;-76
2021/01/22 03:42:42;;;;;;;4.70;2.20;;;3.30;99.90;;;;;;4973420;28;20087;-76
2021/01/22 03:45:08;;;;;;;1.35;1.05;;;3.00;99.90;;;;;;4972462;28;20140;-76
2021/01/22 03:47:33;;;;;;;4.00;1.40;;;3.00;99.90;;;;;;4973077;28;20159;-76
2021/01/22 03:49:59;;;;;;;2.15;1.50;;;3.10;99.90;;;;;;4973758;28;20203;-76
2021/01/22 03:52:25;;;;;;;1.95;1.02;;;3.00;99.90;;;;;;4971997;28;20086;-75
2021/01/22 03:54:51;;;;;;;1.92;1.02;;;3.20;99.90;;;;;;4977064;28;20395;-76
2021/01/22 03:57:16;;;;;;;1.92;1.45;;;3.40;99.90;;;;;;4973806;28;20091;-75
2021/01/22 03:59:42;;;;;;;1.80;1.60;;;3.50;99.90;;;;;;4973510;28;20094;-77
2021/01/22 04:02:07;;;;;;;1.83;1.15;;;3.40;99.90;;;;;;4971584;28;20169;-76
2021/01/22 04:04:33;;;;;;;1.77;1.25;;;3.30;99.90;;;;;;4980434;28;20102;-76
2021/01/22 04:07:00;;;;;;;2.58;1.58;;;3.10;99.90;;;;;;4976206;28;20548;-76
2021/01/22 04:09:26;;;;;;;1.90;1.20;;;3.10;99.90;;;;;;4970236;28;20138;-76
2021/01/22 04:11:51;;;;;;;2.25;1.48;;;2.90;99.90;;;;;;4967905;28;20163;-76
2021/01/22 04:14:17;;;;;;;1.88;1.20;;;2.80;99.90;;;;;;4985404;28;20158;-76
2021/01/22 04:16:42;;;;;;;2.15;1.35;;;2.70;99.90;;;;;;4971848;28;20098;-76
2021/01/22 04:19:08;;;;;;;2.20;1.50;;;2.60;99.90;;;;;;4970670;28;20095;-76
2021/01/22 04:21:34;;;;;;;1.70;1.23;;;2.60;99.90;;;;;;4984229;28;20087;-75
2021/01/22 04:23:59;;;;;;;3.05;1.38;;;2.60;99.90;;;;;;4970603;28;20194;-76
2021/01/22 04:26:25;;;;;;;1.80;1.20;;;2.70;99.90;;;;;;4972799;28;20107;-75
2021/01/22 04:28:53;;;;;;;1.73;1.00;;;2.90;99.90;;;;;;4979150;28;20094;-76
2021/01/22 04:31:19;;;;;;;2.20;1.40;;;3.10;99.90;;;;;;4970825;28;20075;-76
2021/01/22 04:33:45;;;;;;;3.75;1.50;;;3.10;99.90;;;;;;4971971;28;20099;-75
2021/01/22 04:36:10;;;;;;;1.92;1.33;;;3.10;99.90;;;;;;4971933;28;20067;-76
2021/01/22 04:38:36;;;;;;;2.22;1.38;;;3.30;99.90;;;;;;4979907;28;20091;-76
2021/01/22 04:41:02;;;;;;;1.90;1.10;;;3.20;99.90;;;;;;4971566;28;20109;-76
2021/01/22 04:43:27;;;;;;;2.65;1.52;;;3.20;99.90;;;;;;4970684;28;20510;-76
2021/01/22 04:45:54;;;;;;;2.22;1.60;;;3.00;99.90;;;;;;4973767;28;20079;-74
2021/01/22 04:48:20;;;;;;;2.10;1.00;;;2.90;99.90;;;;;;4971442;28;20102;-76
2021/01/22 04:50:46;;;;;;;1.48;1.10;;;3.00;99.90;;;;;;4997058;28;20525;-75
2021/01/22 04:53:12;;;;;;;3.35;1.48;;;3.00;99.90;;;;;;4977050;28;20161;-74
2021/01/22 04:55:43;;;;;;;2.45;0.98;;;2.80;99.90;;;;;;4980847;28;20082;-75
2021/01/22 04:58:11;;;;;;;3.60;1.20;;;2.70;99.90;;;;;;4979943;28;20186;-74
2021/01/22 05:00:38;;;;;;;2.25;1.80;;;2.70;99.90;;;;;;4973111;28;20114;-75
2021/01/22 05:03:04;;;;;;;1.40;1.20;;;2.80;99.90;;;;;;4979986;28;20091;-75
2021/01/22 05:05:29;;;;;;;1.65;1.30;;;2.80;99.90;;;;;;4996363;28;20537;-75
2021/01/22 05:07:55;;;;;;;1.42;1.08;;;2.80;99.90;;;;;;4973639;28;20079;-74
2021/01/22 05:10:21;;;;;;;2.00;1.00;;;2.80;99.90;;;;;;4972759;28;20169;-73
2021/01/22 05:12:47;;;;;;;1.95;0.95;;;2.80;99.90;;;;;;4976043;28;20094;-73
2021/01/22 05:15:13;;;;;;;2.85;0.90;;;3.00;99.90;;;;;;4987509;28;20154;-74
2021/01/22 05:18:15;;;;;;;1.13;0.77;;;3.20;99.90;;;;;;4985629;28;20086;-74
2021/01/22 05:20:41;;;;;;;1.13;0.70;;;3.50;99.90;;;;;;4939883;28;20632;-75
2021/01/22 05:23:09;;;;;;;1.25;0.47;;;3.60;99.90;;;;;;4965384;28;20209;-75
2021/01/22 05:25:58;;;;;;;1.42;0.85;;;4.00;99.90;;;;;;4970724;28;20163;-74
2021/01/22 05:28:36;;;;;;;1.98;0.98;;;4.10;99.90;;;;;;4975762;28;20561;-75
2021/01/22 05:31:03;;;;;;;1.35;0.75;;;4.10;99.90;;;;;;4982052;28;20082;-74
2021/01/22 05:33:28;;;;;;;0.77;0.57;;;4.30;99.90;;;;;;4973788;28;20099;-74
2021/01/22 05:35:54;;;;;;;0.90;0.60;;;4.50;99.90;;;;;;4976052;28;20103;-74
2021/01/22 05:38:38;;;;;;;1.38;0.90;;;4.70;99.90;;;;;;4973942;28;20456;-76
2021/01/22 05:41:06;;;;;;;1.92;1.13;;;4.80;99.90;;;;;;4968658;28;20219;-77
2021/01/22 05:43:36;;;;;;;2.28;0.90;;;4.80;99.90;;;;;;4973438;28;20106;-75
2021/01/22 05:46:04;;;;;;;1.55;0.88;;;4.70;99.90;;;;;;4968973;28;20087;-76
2021/01/22 05:48:29;;;;;;;1.48;0.93;;;4.70;99.90;;;;;;4975012;28;20075;-74
2021/01/22 05:50:57;;;;;;;3.20;1.45;;;4.50;99.90;;;;;;4994413;28;20558;-76
2021/01/22 05:53:24;;;;;;;1.30;0.70;;;4.50;99.90;;;;;;4974195;28;20127;-76
2021/01/22 05:56:09;;;;;;;1.45;0.90;;;4.60;99.90;;;;;;4980381;28;20088;-76
2021/01/22 05:58:38;;;;;;;2.75;2.15;;;4.60;99.90;;;;;;4980438;28;20094;-76
2021/01/22 06:01:07;;;;;;;1.60;1.30;;;4.60;99.90;;;;;;4969087;28;20633;-75
2021/01/22 06:03:34;;;;;;;1.20;1.10;;;4.60;99.90;;;;;;4970270;28;20150;-74
2021/01/22 06:05:59;;;;;;;1.15;0.82;;;4.60;99.90;;;;;;4991033;28;20078;-78
2021/01/22 06:08:25;;;;;;;1.38;0.88;;;4.50;99.90;;;;;;4980427;28;20090;-74
2021/01/22 06:10:52;;;;;;;1.38;0.68;;;4.60;99.90;;;;;;4976065;28;20161;-74
2021/01/22 06:13:26;;;;;;;1.58;0.88;;;4.60;99.90;;;;;;4978329;28;20122;-75
2021/01/22 06:15:58;;;;;;;1.13;0.75;;;4.60;99.90;;;;;;4971117;28;20141;-76
2021/01/22 06:18:31;;;;;;;1.45;0.50;;;4.50;99.90;;;;;;4979715;28;20174;-74
2021/01/22 06:21:08;;;;;;;1.33;0.77;;;4.50;99.90;;;;;;4969607;28;20153;-75
2021/01/22 06:23:35;;;;;;;1.10;0.70;;;4.40;99.90;;;;;;4973757;28;20695;-76
2021/01/22 06:26:02;;;;;;;1.33;0.50;;;4.50;99.90;;;;;;4975757;28;20169;-76
2021/01/22 06:28:30;;;;;;;0.77;0.57;;;4.50;99.90;;;;;;4984365;28;20140;-74
2021/01/22 06:30:56;;;;;;;1.35;0.80;;;4.50;99.90;;;;;;4991376;28;20601;-75
2021/01/22 06:33:23;;;;;;;1.17;0.80;;;4.30;99.90;;;;;;4995786;28;20099;-75
2021/01/22 06:35:50;;;;;;;1.92;1.17;;;4.30;99.90;;;;;;4992530;28;20120;-75
2021/01/22 06:38:20;;;;;;;3.45;0.88;;;4.30;99.90;;;;;;4990844;28;20176;-74
2021/01/22 06:40:46;;;;;;;1.70;1.08;;;4.20;99.90;;;;;;4982812;28;20094;-77
2021/01/22 06:43:11;;;;;;;1.80;0.85;;;4.20;99.90;;;;;;4973504;28;20103;-74
2021/01/22 06:45:38;;;;;;;2.60;1.50;;;4.30;99.90;;;;;;4981140;28;20164;-73
2021/01/22 06:48:06;;;;;;;3.20;1.35;;;4.30;99.90;;;;;;4981268;28;20082;-75
2021/01/22 06:50:33;;;;;;;1.92;1.17;;;4.40;99.90;;;;;;4972497;28;20129;-73
2021/01/22 06:53:08;;;;;;;1.33;0.98;;;4.30;99.90;;;;;;4986025;28;20109;-75
2021/01/22 06:56:00;;;;;;;1.55;1.20;;;4.30;99.90;;;;;;4984715;28;20109;-75
2021/01/22 06:58:30;;;;;;;2.10;1.17;;;4.20;99.90;;;;;;4980721;28;20118;-75
2021/01/22 07:00:57;;;;;;;4.22;1.38;;;4.30;99.90;;;;;;4990176;28;20169;-74
2021/01/22 07:03:38;;;;;;;3.47;1.25;;;4.40;99.90;;;;;;4981342;28;20567;-77
2021/01/22 07:06:04;;;;;;;1.17;0.93;;;4.50;99.90;;;;;;4984731;28;20491;-76
2021/01/22 07:08:55;;;;;;;1.50;1.00;;;4.50;99.90;;;;;;4975513;28;20082;-76
2021/01/22 07:11:23;;;;;;;2.88;1.30;;;4.80;99.90;;;;;;4974030;28;20083;-75
2021/01/22 07:13:49;;;;;;;2.63;1.42;;;4.80;99.90;;;;;;4992679;28;20094;-76
2021/01/22 07:16:18;;;;;;;3.05;1.50;;;4.70;99.90;;;;;;4986778;28;20177;-76
2021/01/22 07:18:57;;;;;;;4.45;1.65;;;4.70;99.90;;;;;;4985064;28;20086;-75
2021/01/22 07:21:33;;;;;;;2.70;1.45;;;4.70;99.90;;;;;;4986879;28;20574;-77
2021/01/22 07:24:00;;;;;;;3.00;1.70;;;4.70;99.90;;;;;;4971022;28;20099;-75
2021/01/22 07:26:39;;;;;;;1.92;1.45;;;4.70;99.90;;;;;;4973601;28;20080;-74
2021/01/22 07:29:27;;;;;;;2.17;1.30;;;4.80;99.90;;;;;;4976863;28;20164;-74
2021/01/22 07:32:06;;;;;;;2.40;1.42;;;4.80;99.90;;;;;;4988026;28;20510;-75
2021/01/22 07:34:43;;;;;;;2.05;1.33;;;4.80;99.90;;;;;;4973752;28;20178;-75
2021/01/22 07:37:24;;;;;;;3.38;1.50;;;5.00;99.90;;;;;;4986499;28;20159;-75
2021/01/22 07:39:51;;;;;;;4.30;1.75;;;5.10;99.90;;;;;;4983797;28;20094;-75
2021/01/22 07:42:22;;;;;;;2.08;1.50;;;5.20;99.90;;;;;;4971878;28;20086;-75
2021/01/22 07:44:53;;;;;;;1.98;1.13;;;5.30;99.90;;;;;;4991035;28;20168;-74
2021/01/22 07:47:33;;;;;;;2.28;1.10;;;5.00;99.90;;;;;;4978135;28;20076;-75
2021/01/22 07:50:19;;;;;;;2.42;1.48;;;5.00;99.90;;;;;;4981438;28;20162;-74
2021/01/22 07:52:47;;;;;;;2.90;1.10;;;4.90;99.90;;;;;;4985189;28;20573;-74
2021/01/22 07:55:20;;;;;;;1.95;1.08;;;5.10;99.90;;;;;;4979560;28;20087;-77
2021/01/22 07:58:00;;;;;;;2.28;1.30;;;5.00;99.90;;;;;;4978255;28;20075;-77
2021/01/22 08:00:35;;;;;;;1.95;1.27;;;5.10;99.90;;;;;;4984250;28;20099;-77
2021/01/22 08:03:00;;;;;;;;;;;5.30;99.90;;;;;;4981207;28;20231;-76
2021/01/22 08:05:58;;;;;;;2.88;1.35;;;5.30;99.90;;;;;;4986683;28;20065;-75
2021/01/22 08:08:27;;;;;;;3.65;1.65;;;5.30;99.90;;;;;;4986538;28;20087;-75
2021/01/22 08:10:53;;;;;;;4.03;1.58;;;5.40;99.90;;;;;;4978239;28;20079;-76
2021/01/22 08:13:19;;;;;;;2.13;1.20;;;5.40;99.90;;;;;;4975362;28;20102;-76
2021/01/22 08:15:45;;;;;;;2.38;1.50;;;5.50;99.90;;;;;;4974035;28;20087;-75
2021/01/22 08:18:13;;;;;;;3.00;1.10;;;5.40;99.90;;;;;;4989360;28;20090;-74
2021/01/22 08:20:48;;;;;;;3.45;1.00;;;5.30;99.90;;;;;;4978988;28;20487;-75
2021/01/22 08:23:14;;;;;;;2.20;1.10;;;5.20;99.90;;;;;;4987122;28;20121;-76
2021/01/22 08:25:40;;;;;;;2.40;1.15;;;5.20;99.90;;;;;;4991099;28;20518;-76
2021/01/22 08:28:09;;;;;;;1.63;0.75;;;5.10;99.90;;;;;;4982972;28;20428;-76
2021/01/22 08:30:36;;;;;;;2.55;1.20;;;5.20;99.90;;;;;;4979662;28;20497;-75
2021/01/22 08:33:04;;;;;;;1.58;1.00;;;5.10;99.90;;;;;;4986187;28;20174;-74
2021/01/22 08:35:31;;;;;;;1.83;1.23;;;5.10;99.90;;;;;;4975907;28;20812;-75
2021/01/22 08:37:57;;;;;;;1.73;0.98;;;5.10;99.90;;;;;;4976617;28;20138;-73
2021/01/22 08:40:39;;;;;;;1.45;0.98;;;5.00;99.90;;;;;;4976955;28;20198;-74
2021/01/22 08:43:09;;;;;;;1.73;0.98;;;5.10;99.90;;;;;;4972738;28;20253;-73
2021/01/22 08:45:38;;;;;;;1.33;0.80;;;5.10;99.90;;;;;;4980555;28;20082;-74
2021/01/22 08:48:04;;;;;;;1.80;0.90;;;5.10;99.90;;;;;;4981079;28;20063;-74
2021/01/22 08:50:30;;;;;;;1.60;1.00;;;5.10;99.90;;;;;;4975835;28;20106;-74
2021/01/22 08:53:10;;;;;;;1.65;0.95;;;5.10;99.90;;;;;;4983152;28;20109;-73
2021/01/22 08:55:36;;;;;;;1.58;0.70;;;5.10;99.90;;;;;;4979090;28;20478;-73
2021/01/22 08:58:10;;;;;;;1.85;0.95;;;5.30;99.90;;;;;;4981140;28;20077;-75
2021/01/22 09:00:36;;;;;;;1.35;0.80;;;5.30;99.90;;;;;;4976174;28;20102;-74
2021/01/22 09:03:03;;;;;;;2.25;0.98;;;5.60;99.90;;;;;;4980489;28;20555;-74
2021/01/22 09:05:29;;;;;;;2.22;0.90;;;5.60;99.90;;;;;;4982469;28;20079;-74
2021/01/22 09:08:14;;;;;;;0.90;0.70;;;5.60;99.90;;;;;;4986044;28;20086;-75
2021/01/22 09:10:46;;;;;;;1.55;1.13;;;5.80;99.90;;;;;;4981115;28;20106;-76
2021/01/22 09:13:20;;;;;;;1.75;1.30;;;6.30;99.80;;;;;;4981301;28;20098;-75
2021/01/22 09:15:47;;;;;;;1.20;0.80;;;6.60;98.60;;;;;;4981400;28;20478;-75
2021/01/22 09:18:18;;;;;;;1.92;0.65;;;6.90;97.50;;;;;;4980121;28;20079;-75
2021/01/22 09:20:45;;;;;;;1.25;0.75;;;7.10;96.10;;;;;;4974732;28;20091;-74
2021/01/22 09:23:11;;;;;;;0.93;0.60;;;7.10;97.10;;;;;;4978885;28;20103;-77
2021/01/22 09:25:37;;;;;;;1.67;0.90;;;7.20;97.00;;;;;;4984355;28;20071;-76
2021/01/22 09:28:02;;;;;;;1.02;0.80;;;7.30;97.10;;;;;;4975783;28;20082;-75
2021/01/22 09:30:28;;;;;;;2.45;1.20;;;7.40;95.80;;;;;;4979535;28;20762;-76
2021/01/22 09:32:56;;;;;;;2.08;1.10;;;7.60;94.70;;;;;;4991205;28;20098;-75
2021/01/22 09:35:23;;;;;;;2.67;1.15;;;7.50;95.40;;;;;;4983138;28;20087;-76
2021/01/22 09:37:49;;;;;;;1.42;0.93;;;7.60;94.70;;;;;;4981053;28;20173;-75
2021/01/22 09:40:16;;;;;;;1.77;1.23;;;7.70;94.60;;;;;;4978984;28;20177;-77
2021/01/22 09:42:42;;;;;;;3.45;1.05;;;7.80;93.90;;;;;;4977245;28;20083;-75
2021/01/22 09:45:10;;;;;;;1.10;0.75;;;7.90;93.70;;;;;;4988757;28;20163;-74
2021/01/22 09:47:36;;;;;;;1.13;0.60;;;7.90;93.70;;;;;;4985054;28;20079;-76
2021/01/22 09:50:05;;;;;;;1.50;0.60;;;7.90;93.50;;;;;;4975916;28;20079;-76
2021/01/22 09:52:30;;;;;;;4.00;0.70;;;7.80;94.30;;;;;;4974743;28;20082;-75
2021/01/22 09:54:57;;;;;;;0.70;0.70;;;7.90;94.00;;;;;;4973349;28;20688;-77
2021/01/22 09:57:22;;;;;;;1.50;0.75;;;7.80;94.00;;;;;;4979160;28;20166;-77
2021/01/22 09:59:48;;;;;;;3.58;1.30;;;7.80;94.10;;;;;;4987386;28;21187;-75
2021/01/22 10:02:14;;;;;;;1.77;0.93;;;7.80;93.90;;;;;;4986132;28;20121;-76
2021/01/22 10:04:39;;;;;;;4.15;0.93;;;7.90;93.90;;;;;;4972077;28;20157;-76
2021/01/22 10:07:05;;;;;;;1.27;0.80;;;7.90;93.80;;;;;;4971572;28;20103;-76
2021/01/22 10:09:32;;;;;;;3.10;0.63;;;7.80;94.50;;;;;;4981481;28;20071;-77
2021/01/22 10:11:58;;;;;;;2.38;0.68;;;7.90;94.40;;;;;;4980024;28;20121;-79
2021/01/22 10:14:24;;;;;;;1.67;0.73;;;8.00;94.50;;;;;;4972298;28;20512;-76
2021/01/22 10:16:49;;;;;;;1.58;0.75;;;8.20;94.00;;;;;;4970891;28;20082;-76
2021/01/22 10:19:15;;;;;;;1.30;0.90;;;8.20;93.60;;;;;;4977640;28;20078;-76
2021/01/22 10:21:40;;;;;;;1.20;0.80;;;8.30;93.20;;;;;;4980359;28;20091;-77
2021/01/22 10:24:06;;;;;;;1.35;0.63;;;8.30;93.20;;;;;;4977556;28;20105;-74
2021/01/22 10:26:32;;;;;;;1.80;0.77;;;8.30;92.90;;;;;;4985491;28;20087;-75
2021/01/22 10:28:58;;;;;;;1.60;0.82;;;8.50;92.60;;;;;;4979128;28;20071;-76
2021/01/22 10:31:24;;;;;;;1.58;0.80;;;8.50;92.30;;;;;;4972265;28;20432;-76
2021/01/22 10:33:49;;;;;;;1.05;0.57;;;8.60;92.20;;;;;;4976830;28;20165;-75
2021/01/22 10:36:16;;;;;;;1.80;0.80;;;8.60;92.10;;;;;;4978619;28;20078;-76
2021/01/22 10:38:43;;;;;;;2.80;0.82;;;8.70;92.60;;;;;;4984458;28;20587;-75
2021/01/22 10:41:09;;;;;;;0.77;0.63;;;8.90;91.80;;;;;;4980605;28;20094;-76
2021/01/22 10:43:35;;;;;;;1.95;1.00;;;8.90;91.50;;;;;;4983382;28;20087;-79
2021/01/22 10:46:01;;;;;;;2.13;0.95;;;9.00;91.20;;;;;;4971605;28;20067;-78
2021/01/22 10:48:27;;;;;;;1.33;1.00;;;9.10;90.80;;;;;;4972880;28;20855;-75
2021/01/22 10:50:53;;;;;;;2.08;0.95;;;9.00;91.20;;;;;;4974020;28;20079;-76
2021/01/22 10:53:20;;;;;;;2.65;2.03;;;9.00;91.30;;;;;;4981909;28;20123;-76
2021/01/22 10:55:46;;;;;;;5.88;3.50;;;9.00;91.10;;;;;;4983796;28;20238;-75
2021/01/22 10:58:11;;;;;;;2.72;1.90;;;9.10;91.50;;;;;;4974257;28;20528;-75
2021/01/22 11:00:37;;;;;;;1.25;0.90;;;9.20;91.10;;;;;;4978043;28;20141;-77
2021/01/22 11:03:04;;;;;;;1.40;0.90;;;9.20;90.70;;;;;;4986295;28;20144;-77
2021/01/22 11:05:30;;;;;;;1.75;0.90;;;9.10;90.60;;;;;;4989088;28;20067;-79
2021/01/22 11:07:56;;;;;;;2.20;1.00;;;9.20;90.90;;;;;;4973455;28;20174;-76
2021/01/22 11:10:22;;;;;;;1.38;0.85;;;9.10;90.80;;;;;;4977078;28;20666;-77
2021/01/22 11:12:49;;;;;;;1.80;0.73;;;8.90;91.60;;;;;;4985474;28;20103;-78
2021/01/22 11:15:15;;;;;;;1.65;0.75;;;8.90;91.70;;;;;;4977545;28;20271;-77
2021/01/22 11:17:41;;;;;;;1.15;0.77;;;8.80;92.00;;;;;;4976749;28;20079;-75
2021/01/22 11:20:08;;;;;;;2.60;1.10;;;8.80;92.40;;;;;;4975619;28;20182;-77
2021/01/22 11:22:34;;;;;;;1.77;1.02;;;8.90;92.20;;;;;;4990312;28;20095;-78
2021/01/22 11:24:59;;;;;;;1.27;0.98;;;8.90;92.20;;;;;;4986623;28;20567;-77
2021/01/22 11:27:25;;;;;;;1.38;0.90;;;9.10;91.70;;;;;;4985887;28;20076;-78
2021/01/22 11:29:51;;;;;;;1.02;0.88;;;9.10;91.80;;;;;;4978464;28;20090;-76
2021/01/22 11:32:17;;;;;;;1.27;0.80;;;9.20;91.00;;;;;;4969272;28;20106;-77
2021/01/22 11:34:43;;;;;;;0.90;0.65;;;9.00;92.00;;;;;;4985722;28;20086;-76
2021/01/22 11:37:09;;;;;;;1.77;1.00;;;9.00;92.40;;;;;;4981164;28;20091;-76
2021/01/22 11:39:36;;;;;;;1.30;0.80;;;9.10;91.90;;;;;;4992373;28;20079;-77
2021/01/22 11:42:06;;;;;;;1.35;0.85;;;9.10;92.50;;;;;;4981825;28;20067;-77
2021/01/22 11:44:32;;;;;;;1.20;1.00;;;9.20;91.20;;;;;;4980557;28;20094;-78
2021/01/22 11:47:01;;;;;;;0.82;0.70;;;9.30;90.80;;;;;;4993236;28;20079;-77
2021/01/22 11:49:27;;;;;;;3.80;1.05;;;9.50;88.10;;;;;;4986259;28;20459;-76
2021/01/22 11:51:53;;;;;;;1.40;0.82;;;9.60;88.20;;;;;;4993878;28;20085;-77
2021/01/22 11:54:19;;;;;;;1.90;1.00;;;9.70;89.50;;;;;;4997508;28;20103;-77
2021/01/22 11:56:46;;;;;;;1.55;0.85;;;9.70;88.70;;;;;;4983660;28;20071;-77
2021/01/22 11:59:12;;;;;;;2.15;0.82;;;9.80;88.60;;;;;;4979592;28;20082;-75
2021/01/22 12:01:38;;;;;;;1.25;0.70;;;9.80;86.90;;;;;;4983038;28;20086;-77
2021/01/22 12:04:04;;;;;;;2.15;0.88;;;9.80;87.10;;;;;;4978808;28;20087;-76
2021/01/22 12:06:29;;;;;;;1.42;0.95;;;9.70;89.10;;;;;;4976774;28;20079;-76
2021/01/22 12:08:55;;;;;;;2.72;1.17;;;9.70;89.30;;;;;;4977332;28;20074;-75
2021/01/22 12:11:20;;;;;;;1.45;0.80;;;9.70;90.00;;;;;;4978021;28;20067;-76
2021/01/22 12:13:46;;;;;;;1.95;1.00;;;9.80;88.70;;;;;;4980897;28;20552;-77
2021/01/22 12:16:11;;;;;;;1.42;0.70;;;9.80;87.40;;;;;;4981656;28;20090;-77
2021/01/22 12:18:37;;;;;;;1.55;0.90;;;9.80;87.60;;;;;;5001701;28;20164;-76
2021/01/22 12:21:05;;;;;;;2.20;1.20;;;10.00;85.30;;;;;;4993765;28;20091;-76
2021/01/22 12:23:31;;;;;;;1.42;0.90;;;9.90;87.10;;;;;;4990926;28;20095;-77
2021/01/22 12:25:57;;;;;;;1.35;0.80;;;9.90;88.40;;;;;;4980707;28;20142;-77
2021/01/22 12:28:23;;;;;;;1.60;1.00;;;10.00;84.60;;;;;;4991280;28;20169;-76
2021/01/22 12:30:48;;;;;;;1.17;0.60;;;10.10;86.70;;;;;;4978250;28;20494;-77
2021/01/22 12:33:14;;;;;;;0.80;0.50;;;10.10;85.30;;;;;;4982046;28;20082;-77
2021/01/22 12:35:40;;;;;;;1.27;0.70;;;10.00;84.40;;;;;;4990550;28;20109;-77
2021/01/22 12:38:05;;;;;;;0.70;0.50;;;10.10;85.30;;;;;;4983522;28;20087;-75
2021/01/22 12:40:31;;;;;;;0.80;0.50;;;9.90;87.40;;;;;;4981561;28;20095;-77
2021/01/22 12:42:56;;;;;;;0.75;0.45;;;9.90;86.20;;;;;;4989409;28;20095;-78
2021/01/22 12:45:24;;;;;;;0.88;0.40;;;9.70;87.30;;;;;;4996402;28;20222;-76
2021/01/22 12:47:53;;;;;;;0.98;0.68;;;9.80;86.60;;;;;;4976540;28;20087;-76
2021/01/22 12:50:19;;;;;;;1.02;0.60;;;9.90;86.40;;;;;;4977843;28;20145;-77
2021/01/22 12:52:45;;;;;;;0.95;0.68;;;9.90;86.40;;;;;;4981168;28;20095;-77
2021/01/22 12:55:12;;;;;;;0.90;0.50;;;9.90;86.40;;;;;;4984753;28;20542;-76
2021/01/22 12:57:38;;;;;;;1.02;0.40;;;10.00;84.60;;;;;;4983950;28;20106;-77
2021/01/22 13:00:08;;;;;;;1.63;0.32;;;10.10;84.00;;;;;;4977049;28;20131;-77